Latest Weather Observations for Cooma Airport

IDN60801

Issued at 9:35 pm EST Thursday 21 August 2014 (issued every 30 minutes, with the page automatically refreshed every 10 minutes)

About weather observations | Map of weather stations | Latest weather observations for NSW | Other Formats
Station Details ID: 070217 Name: COOMA AIRPORT AWS Lat: -36.29 Lon: 148.97 Height: 930.0 m
Data from the previous 72 hours. | See also: Recent months for locations in New South Wales
Date/Time
EST
Temp
°C
App
Temp
°C
Dew
Point
Rel
Hum
%
Delta-T
°C
Wind Press
QNH
hPa
Press
MSL
hPa
Rain
since 9 am
mm
Dir
 
Spd
km/h
Gust
km/h
Spd
kts
Gust
kts
21/09:30pm 3.4 -0.5 3.3 99 0.0 NNE 13 15 7 8 1031.3 - 0.0
21/09:00pm 5.1 2.5 4.4 95 0.3 NE 7 11 4 6 1031.2 1032.8 0.0
21/08:30pm 6.2 3.5 5.5 95 0.3 NNE 9 13 5 7 1031.0 - 0.0
21/08:09pm 6.3 3.2 5.6 95 0.3 NNE 11 15 6 8 1030.9 - 0.0
21/08:00pm 6.3 3.2 5.6 95 0.3 NNE 11 13 6 7 1030.8 - 0.0
21/07:30pm 6.5 3.0 5.6 94 0.4 NNE 13 15 7 8 1030.7 - 0.0
21/07:28pm 6.5 3.0 5.6 94 0.4 NE 13 15 7 8 1030.5 - 0.0
21/07:00pm 6.5 3.5 5.8 95 0.3 NE 11 17 6 9 1030.3 - 0.0
21/06:30pm 6.9 4.2 5.7 92 0.6 ENE 9 13 5 7 1030.0 - 0.0
21/06:26pm 7.0 4.3 5.6 91 0.7 ENE 9 11 5 6 1030.0 - 0.0
21/06:00pm 7.4 4.2 5.0 85 1.1 E 11 15 6 8 1029.7 1031.2 0.0
21/05:59pm 7.4 4.2 5.0 85 1.1 E 11 15 6 8 1029.7 - 0.0
21/05:30pm 7.9 4.4 5.4 84 1.2 ENE 13 15 7 8 1029.3 - 0.0
21/05:00pm 8.5 6.1 4.3 75 1.9 E 6 9 3 5 1028.9 - 0.0
21/04:30pm 8.4 5.5 4.6 77 1.8 ESE 9 11 5 6 1028.7 - 0.0
21/04:00pm 8.6 3.7 4.0 73 2.1 E 19 22 10 12 1028.6 - 0.0
21/03:30pm 9.4 6.8 4.4 71 2.3 ESE 7 13 4 7 1028.4 - 0.0
21/03:00pm 9.4 6.2 3.2 65 2.8 ENE 9 13 5 7 1028.4 1029.8 0.0
21/02:30pm 9.2 5.6 3.0 65 2.8 ENE 11 17 6 9 1028.4 - 0.0
21/02:00pm 9.3 6.3 2.2 61 3.2 ENE 7 13 4 7 1028.6 - 0.0
21/01:30pm 9.3 5.2 2.2 61 3.2 NE 13 20 7 11 1028.8 - 0.0
21/01:00pm 9.0 4.9 2.3 63 3.0 NNE 13 20 7 11 1029.1 - 0.0
21/12:30pm 8.9 5.3 2.7 65 2.8 NNE 11 17 6 9 1029.5 - 0.0
21/12:00pm 9.1 6.2 2.7 64 2.9 NNE 7 15 4 8 1029.8 1031.3 0.0
21/11:30am 8.5 5.6 2.5 66 2.7 N 7 11 4 6 1030.1 - 0.0
21/11:00am 7.4 4.4 2.1 69 2.3 ENE 7 13 4 7 1030.3 - 0.0
21/10:30am 6.6 3.3 2.3 74 1.9 SE 9 13 5 7 1030.4 - 0.0
21/10:00am 6.0 2.5 1.5 73 1.9 S 9 11 5 6 1030.4 - 0.0
21/09:30am 6.1 2.9 3.1 81 1.3 SSE 9 15 5 8 1030.2 - 0.0
21/09:00am 3.7 0.7 1.9 88 0.7 SSW 7 9 4 5 1030.2 1031.8 0.0
21/08:30am 2.9 1.3 2.2 95 0.3 CALM 0 0 0 0 1030.1 - 0.0
21/08:00am 0.8 -1.1 0.5 98 0.1 CALM 0 6 0 3 1030.0 - 0.0
21/07:30am -1.5 -4.1 -1.9 97 0.1 WSW 2 7 1 4 1029.6 - 0.0
21/07:00am -2.4 -5.5 -2.7 98 0.0 WNW 4 7 2 4 1029.5 - 0.0
21/06:30am -2.7 -5.9 -3.4 95 0.1 N 4 9 2 5 1029.1 - 0.0
21/06:00am -2.5 -5.0 -3.8 91 0.3 CALM 0 0 0 0 1028.8 1030.3 0.0
21/05:30am -1.7 -4.1 -3.0 91 0.4 CALM 0 0 0 0 1028.5 - 0.0
21/05:00am -0.2 -2.4 -1.5 91 0.5 CALM 0 0 0 0 1028.1 - 0.0
21/04:30am 1.1 -1.0 -0.5 89 0.6 CALM 0 0 0 0 1028.1 - 0.0
21/04:00am 2.7 -0.8 1.2 90 0.6 W 9 11 5 6 1028.1 - 0.0
21/03:30am 3.2 0.4 2.2 93 0.4 W 6 7 3 4 1027.9 - 0.0
21/03:00am 3.1 0.7 2.4 95 0.3 SSW 4 9 2 5 1027.8 1029.3 0.0
21/02:30am 2.9 0.2 2.6 98 0.1 S 6 9 3 5 1027.8 - 0.0
21/02:00am 2.7 0.8 2.6 99 0.0 SSW 2 7 1 4 1027.8 - 0.0
21/01:30am 1.9 -0.2 1.8 99 0.0 WSW 2 6 1 3 1027.9 - 0.0
21/01:00am 1.1 -0.7 1.0 99 0.0 CALM 0 0 0 0 1028.0 - 0.0
21/12:30am 0.2 -1.8 0.1 99 0.0 CALM 0 0 0 0 1028.0 - 0.0
21/12:00am -0.1 -2.1 -0.2 99 0.0 WSW 0 0 0 0 1028.0 1029.5 0.0
 
Date/Time
EST
Temp
°C
App
Temp
°C
Dew
Point
Rel
Hum
%
Delta-T
°C
Wind Press
QNH
hPa
Press
MSL
hPa
Rain
since 9 am
mm
Dir
 
Spd
km/h
Gust
km/h
Spd
kts
Gust
kts
20/11:30pm 0.0 -3.1 -0.1 99 0.0 SSW 6 7 3 4 1027.9 - 0.0
20/11:00pm 0.3 -3.0 0.2 99 0.0 SSW 7 9 4 5 1027.9 - 0.0
20/10:30pm 0.6 -1.7 0.5 99 0.0 WSW 2 7 1 4 1027.8 - 0.0
20/10:00pm 0.2 -1.8 -0.2 97 0.2 CALM 0 0 0 0 1027.8 - 0.0
20/09:30pm 1.1 -0.9 0.1 93 0.4 CALM 0 4 0 2 1027.8 - 0.0
20/09:00pm 1.2 -0.8 -0.1 91 0.5 CALM 0 7 0 4 1027.6 1029.1 0.0
20/08:30pm 2.1 -1.4 1.2 94 0.4 NNE 9 13 5 7 1027.2 - 0.0
20/08:00pm 2.5 -1.8 1.3 92 0.5 N 13 15 7 8 1026.8 - 0.0
20/07:30pm 2.6 -1.4 0.3 85 0.9 NE 11 13 6 7 1026.6 - 0.0
20/07:00pm 3.5 -0.2 0.0 78 1.4 NE 9 11 5 6 1026.2 - 0.0
20/06:30pm 2.6 -1.0 -2.1 71 1.8 E 7 11 4 6 1025.7 - 0.0
20/06:00pm 4.6 0.8 -0.6 69 2.1 S 9 11 5 6 1025.3 1026.7 0.0
20/05:30pm 6.7 2.6 -0.5 60 2.9 SSE 11 15 6 8 1024.9 - 0.0
20/05:00pm 8.8 4.7 0.0 54 3.7 S 11 15 6 8 1024.5 - 0.0
20/04:30pm 9.8 4.9 -3.1 40 5.1 S 13 17 7 9 1024.2 - 0.0
20/04:00pm 10.3 5.3 -1.4 44 4.8 S 15 20 8 11 1024.1 - 0.0
20/03:30pm 10.8 7.7 0.2 48 4.6 SW 6 11 3 6 1024.0 - 0.0
20/03:00pm 10.7 7.6 -0.1 47 4.6 WSW 6 11 3 6 1023.9 1025.3 0.0
20/02:30pm 9.8 6.5 0.2 51 4.1 NE 7 11 4 6 1023.7 - 0.0
20/02:00pm 9.9 7.2 0.3 51 4.1 NE 4 11 2 6 1023.8 - 0.0
20/01:30pm 9.6 6.9 0.5 53 3.9 NNW 4 11 2 6 1023.8 - 0.0
20/01:00pm 8.1 5.1 0.8 60 3.1 ENE 6 9 3 5 1024.1 - 0.0
20/12:30pm 7.6 3.9 0.1 59 3.1 NNE 9 13 5 7 1024.4 - 0.0
20/12:00pm 6.7 2.9 -0.5 60 2.9 NE 9 17 5 9 1024.9 1026.3 0.0
20/11:30am 5.6 1.1 -0.2 66 2.4 ENE 13 17 7 9 1025.3 - 0.0
20/11:00am 4.9 1.1 -0.5 68 2.2 NE 9 15 5 8 1025.6 - 0.0
20/10:30am 4.1 0.2 -1.5 67 2.2 NE 9 15 5 8 1025.7 - 0.0
20/10:19am 4.0 0.1 -1.6 67 2.2 NE 9 13 5 7 1025.8 - 0.0
20/10:00am 3.8 0.3 -1.0 71 1.9 N 7 13 4 7 1025.8 - 0.0
20/09:30am 3.3 -0.2 -1.1 73 1.7 NW 7 11 4 6 1025.8 - 0.0
20/09:00am 2.2 -1.1 -1.4 77 1.4 ENE 6 9 3 5 1026.0 1027.4 0.0
20/08:30am 1.8 -0.4 -1.3 80 1.2 CALM 0 6 0 3 1025.8 - 0.0
20/08:22am 1.7 -1.6 -1.5 79 1.2 W 6 20 3 11 1025.7 - 0.0
20/08:00am 1.7 -2.5 -0.7 84 0.9 W 11 15 6 8 1025.5 - 0.0
20/07:30am 1.3 -2.9 -0.8 86 0.8 W 11 17 6 9 1025.3 - 0.0
20/07:00am 0.8 -3.8 -0.8 89 0.6 WSW 13 19 7 10 1025.0 - 0.0
20/06:30am 0.3 -3.9 -1.1 90 0.5 WSW 11 15 6 8 1024.5 - 0.0
20/06:00am 0.7 -3.1 -0.7 90 0.5 SW 9 13 5 7 1024.2 1025.6 0.0
20/05:30am 0.7 -3.2 -1.4 86 0.8 W 9 11 5 6 1023.9 - 0.0
20/05:00am 2.0 -2.1 -0.4 84 0.9 W 11 15 6 8 1023.8 - 0.0
20/04:30am 2.2 -1.9 -0.4 83 1.0 SW 11 15 6 8 1023.5 - 0.0
20/04:00am 2.3 -1.8 -0.3 83 1.0 SW 11 13 6 7 1023.4 - 0.0
20/03:30am 2.4 -1.3 -0.2 83 1.0 WSW 9 13 5 7 1023.3 - 0.0
20/03:00am 2.6 -1.5 0.0 83 1.0 WSW 11 15 6 8 1023.2 1024.6 0.0
20/02:30am 2.7 -0.9 0.8 87 0.8 SW 9 13 5 7 1023.3 - 0.0
20/02:00am 3.0 0.1 2.6 97 0.2 SW 7 11 4 6 1023.3 - 0.0
20/01:30am 2.9 -0.1 2.2 95 0.3 WSW 7 9 4 5 1023.4 - 0.0
20/01:00am 2.8 -0.3 1.6 92 0.5 S 7 9 4 5 1023.5 - 0.0
20/12:30am 2.8 0.0 1.9 94 0.4 SW 6 7 3 4 1023.5 - 0.0
20/12:00am 2.9 -0.5 1.9 93 0.4 S 9 11 5 6 1023.7 1025.0 0.0
 
Date/Time
EST
Temp
°C
App
Temp
°C
Dew
Point
Rel
Hum
%
Delta-T
°C
Wind Press
QNH
hPa
Press
MSL
hPa
Rain
since 9 am
mm
Dir
 
Spd
km/h
Gust
km/h
Spd
kts
Gust
kts
19/11:30pm 2.8 -0.6 1.8 93 0.4 SSW 9 15 5 8 1023.5 - 0.0
19/11:00pm 2.8 -0.2 2.1 95 0.3 SSW 7 9 4 5 1023.4 - 0.0
19/10:30pm 2.9 -0.5 1.9 93 0.4 S 9 11 5 6 1023.3 - 0.0
19/10:00pm 3.4 -0.3 2.5 94 0.4 SW 11 13 6 7 1023.3 - 0.0
19/09:30pm 3.6 -0.4 2.7 94 0.4 SW 13 17 7 9 1023.1 - 0.0
19/09:00pm 3.7 -0.8 2.4 91 0.5 SW 15 17 8 9 1023.1 1024.5 0.0
19/08:30pm 3.4 -1.5 1.9 90 0.6 SW 17 20 9 11 1023.0 - 0.0
19/08:00pm 3.2 -2.2 1.4 88 0.7 SSW 19 20 10 11 1022.8 - 0.0
19/07:30pm 3.6 -1.4 1.5 86 0.9 SSW 17 20 9 11 1022.6 - 0.0
19/07:00pm 4.6 -0.9 2.1 84 1.1 SSW 20 26 11 14 1022.1 - 0.0
19/06:30pm 4.5 -1.3 2.4 86 0.9 SSW 22 26 12 14 1021.9 - 0.0
19/06:00pm 4.5 -1.0 1.7 82 1.2 SSW 20 24 11 13 1021.6 1022.9 0.0
19/05:30pm 5.1 -1.2 1.8 79 1.4 SSW 24 28 13 15 1021.0 - 0.0
19/05:00pm 6.3 -1.3 2.6 77 1.6 S 32 41 17 22 1020.7 - 0.0
19/04:30pm 7.0 0.1 2.3 72 2.1 S 28 35 15 19 1020.5 - 0.0
19/04:00pm 7.6 0.0 2.9 72 2.1 S 32 39 17 21 1020.2 - 0.0
19/03:30pm 8.0 0.1 2.5 68 2.4 S 33 39 18 21 1020.0 - 0.0
19/03:00pm 8.3 0.0 2.3 66 2.6 S 35 44 19 24 1019.9 1021.2 0.0
19/02:30pm 8.5 0.4 3.1 69 2.4 SSW 35 44 19 24 1019.7 - 0.0
19/02:00pm 8.6 0.9 3.6 71 2.3 SSW 33 41 18 22 1019.6 - 0.0
19/01:30pm 8.7 1.3 4.9 77 1.8 S 33 41 18 22 1019.5 - 0.0
19/01:00pm 8.6 1.8 5.2 79 1.6 S 30 39 16 21 1019.6 - 0.0
19/12:30pm 8.3 1.5 5.1 80 1.5 S 30 37 16 20 1019.8 - 0.0
19/12:00pm 8.1 1.6 4.9 80 1.5 S 28 41 15 22 1020.2 1021.5 0.0
19/11:30am 7.7 0.2 4.7 81 1.4 S 33 41 18 22 1020.4 - 0.0
19/11:01am 7.7 0.5 5.7 87 1.0 S 33 43 18 23 1020.4 - 0.0
19/11:00am 7.7 0.5 5.7 87 1.0 S 33 43 18 23 1020.4 - 0.0
19/10:30am 7.3 -0.2 6.2 93 0.5 S 35 44 19 24 1020.3 - 0.0
19/10:10am 7.1 0.7 7.0 99 0.0 S 30 41 16 22 1020.0 - 0.0
19/10:00am 6.9 0.8 6.8 99 0.0 S 28 37 15 20 1020.2 - 0.0
19/09:30am 6.4 0.2 6.3 99 0.0 S 28 33 15 18 1019.9 - 0.0
19/09:20am 6.4 0.2 6.3 99 0.0 S 28 35 15 19 1019.9 - 0.0
19/09:00am 6.7 1.0 6.6 99 0.0 S 26 33 14 18 1019.8 1021.1 3.2
19/08:30am 6.2 0.7 6.1 99 0.0 S 24 30 13 16 1019.8 - 3.2
19/08:00am 5.7 0.9 5.6 99 0.0 SSW 20 26 11 14 1019.6 - 3.2
19/07:30am 5.4 0.5 5.3 99 0.0 SW 20 26 11 14 1019.3 - 3.2
19/07:00am 5.3 0.4 5.2 99 0.0 SSW 20 28 11 15 1018.9 - 3.2
19/06:30am 5.3 0.0 5.2 99 0.0 SSW 22 26 12 14 1018.6 - 3.2
19/06:00am 5.3 0.6 5.2 99 0.0 SW 19 24 10 13 1018.4 1019.7 3.2
19/05:35am 5.4 0.5 5.3 99 0.0 SW 20 26 11 14 1018.3 - 3.0
19/05:30am 5.4 0.5 5.3 99 0.0 SSW 20 28 11 15 1018.3 - 3.0
19/05:15am 5.4 0.7 5.3 99 0.0 SW 19 22 10 12 1018.2 - 3.0
19/05:00am 5.4 0.5 5.3 99 0.0 SW 20 24 11 13 1018.1 - 2.8
19/04:42am 5.4 0.7 5.3 99 0.0 SSW 19 24 10 13 1018.1 - 2.8
19/04:30am 5.3 0.4 5.2 99 0.0 SSW 20 28 11 15 1018.1 - 2.8
19/04:21am 5.3 0.4 5.2 99 0.0 SSW 20 28 11 15 1018.0 - 2.8
19/04:13am 5.3 0.6 5.2 99 0.0 SSW 19 22 10 12 1018.1 - 2.8
19/04:00am 5.2 0.9 5.1 99 0.0 SSW 17 24 9 13 1018.0 - 2.8
19/03:30am 5.3 0.6 5.2 99 0.0 SSW 19 24 10 13 1017.7 - 2.4
19/03:00am 5.3 0.6 5.2 99 0.0 SW 19 26 10 14 1017.7 1019.0 2.4
19/02:53am 5.3 0.6 5.2 99 0.0 SW 19 26 10 14 1017.9 - 2.2
19/02:30am 5.4 0.5 5.3 99 0.0 SW 20 24 11 13 1017.7 - 2.2
19/02:02am 5.5 0.9 5.4 99 0.0 SW 19 24 10 13 1017.9 - 2.0
19/02:00am 5.5 0.9 5.4 99 0.0 SW 19 24 10 13 1017.9 - 2.0
19/01:30am 5.5 0.7 5.4 99 0.0 SW 20 26 11 14 1017.9 - 2.0
19/01:00am 5.5 0.7 5.4 99 0.0 SSW 20 28 11 15 1017.9 - 2.0
19/12:30am 5.6 -0.4 5.5 99 0.0 SSW 26 35 14 19 1017.6 - 2.0
19/12:00am 5.7 0.1 5.6 99 0.0 SSW 24 32 13 17 1017.6 1018.9 2.0
 
Date/Time
EST
Temp
°C
App
Temp
°C
Dew
Point
Rel
Hum
%
Delta-T
°C
Wind Press
QNH
hPa
Press
MSL
hPa
Rain
since 9 am
mm
Dir
 
Spd
km/h
Gust
km/h
Spd
kts
Gust
kts
18/11:30pm 5.9 0.0 5.8 99 0.0 SSW 26 33 14 18 1017.5 - 2.0
18/11:00pm 6.0 0.5 5.9 99 0.0 SSW 24 32 13 17 1017.4 - 2.0
18/10:45pm 5.9 0.0 5.8 99 0.0 SSW 26 35 14 19 1017.3 - 2.0
18/10:30pm 5.9 0.4 5.8 99 0.0 SSW 24 30 13 16 1017.3 - 2.0
18/10:00pm 6.1 0.6 6.0 99 0.0 SSW 24 32 13 17 1017.3 - 1.8

Other Formats:

Comma delimited format used in spreadsheet applications
http://www.bom.gov.au/fwo/IDN60801/IDN60801.94921.axf

JavaScript Object Notation format (JSON) in row-major order
http://www.bom.gov.au/fwo/IDN60801/IDN60801.94921.json